sensor_id;sensor_type;location;lat;lon;timestamp;temperature;humidity
1806;DHT22;901;48.142;11.516;2022-12-24T00:00:58;11.00;99.90
1806;DHT22;901;48.142;11.516;2022-12-24T00:03:25;11.00;99.90
1806;DHT22;901;48.142;11.516;2022-12-24T00:05:52;11.00;99.90
1806;DHT22;901;48.142;11.516;2022-12-24T00:08:19;11.00;99.90
1806;DHT22;901;48.142;11.516;2022-12-24T00:10:49;10.90;99.90
1806;DHT22;901;48.142;11.516;2022-12-24T00:13:18;10.90;99.90
1806;DHT22;901;48.142;11.516;2022-12-24T00:15:45;11.00;99.90
1806;DHT22;901;48.142;11.516;2022-12-24T00:18:12;11.00;99.90
1806;DHT22;901;48.142;11.516;2022-12-24T00:20:39;11.10;99.90
1806;DHT22;901;48.142;11.516;2022-12-24T00:23:06;11.10;99.90
1806;DHT22;901;48.142;11.516;2022-12-24T00:25:33;11.20;99.90
1806;DHT22;901;48.142;11.516;2022-12-24T00:28:00;11.20;99.90
1806;DHT22;901;48.142;11.516;2022-12-24T00:30:28;11.30;99.90
1806;DHT22;901;48.142;11.516;2022-12-24T00:32:55;11.30;99.90
1806;DHT22;901;48.142;11.516;2022-12-24T00:35:22;11.40;99.90
1806;DHT22;901;48.142;11.516;2022-12-24T00:37:49;11.40;99.90
1806;DHT22;901;48.142;11.516;2022-12-24T00:40:17;11.40;99.90
1806;DHT22;901;48.142;11.516;2022-12-24T00:42:44;11.40;99.90
1806;DHT22;901;48.142;11.516;2022-12-24T00:45:11;11.50;99.90
1806;DHT22;901;48.142;11.516;2022-12-24T00:47:39;11.40;99.90
1806;DHT22;901;48.142;11.516;2022-12-24T00:50:07;11.50;99.90
1806;DHT22;901;48.142;11.516;2022-12-24T00:52:34;11.50;99.90
1806;DHT22;901;48.142;11.516;2022-12-24T00:55:01;11.50;99.90
1806;DHT22;901;48.142;11.516;2022-12-24T00:57:28;11.50;99.90
1806;DHT22;901;48.142;11.516;2022-12-24T00:59:55;11.50;99.90
1806;DHT22;901;48.142;11.516;2022-12-24T01:02:22;11.50;99.90
1806;DHT22;901;48.142;11.516;2022-12-24T01:04:50;11.50;99.90
1806;DHT22;901;48.142;11.516;2022-12-24T01:07:40;11.50;99.90
1806;DHT22;901;48.142;11.516;2022-12-24T01:10:07;11.40;99.90
1806;DHT22;901;48.142;11.516;2022-12-24T01:12:34;11.40;99.90
1806;DHT22;901;48.142;11.516;2022-12-24T01:15:01;11.40;99.90
1806;DHT22;901;48.142;11.516;2022-12-24T01:17:30;11.20;99.90
1806;DHT22;901;48.142;11.516;2022-12-24T01:19:58;11.10;99.90
1806;DHT22;901;48.142;11.516;2022-12-24T01:22:25;11.10;99.90
1806;DHT22;901;48.142;11.516;2022-12-24T01:24:52;11.00;99.90
1806;DHT22;901;48.142;11.516;2022-12-24T01:27:18;11.00;99.90
1806;DHT22;901;48.142;11.516;2022-12-24T01:29:45;10.90;99.90
1806;DHT22;901;48.142;11.516;2022-12-24T01:32:12;10.90;99.90
1806;DHT22;901;48.142;11.516;2022-12-24T01:34:39;10.90;99.90
1806;DHT22;901;48.142;11.516;2022-12-24T01:37:07;10.90;99.90
1806;DHT22;901;48.142;11.516;2022-12-24T01:39:34;10.80;99.90
1806;DHT22;901;48.142;11.516;2022-12-24T01:42:01;10.80;99.90
1806;DHT22;901;48.142;11.516;2022-12-24T01:44:50;10.80;99.90
1806;DHT22;901;48.142;11.516;2022-12-24T01:47:20;10.80;99.90
1806;DHT22;901;48.142;11.516;2022-12-24T01:49:50;10.80;99.90
1806;DHT22;901;48.142;11.516;2022-12-24T01:52:21;10.80;99.90
1806;DHT22;901;48.142;11.516;2022-12-24T01:54:51;10.70;99.90
1806;DHT22;901;48.142;11.516;2022-12-24T01:57:22;10.70;99.90
1806;DHT22;901;48.142;11.516;2022-12-24T01:59:54;10.70;99.90
1806;DHT22;901;48.142;11.516;2022-12-24T02:02:22;10.70;99.90
1806;DHT22;901;48.142;11.516;2022-12-24T02:04:54;10.70;99.90
1806;DHT22;901;48.142;11.516;2022-12-24T02:07:23;10.70;99.90
1806;DHT22;901;48.142;11.516;2022-12-24T02:09:54;10.70;99.90
1806;DHT22;901;48.142;11.516;2022-12-24T02:12:21;10.70;99.90
1806;DHT22;901;48.142;11.516;2022-12-24T02:14:49;10.60;99.90
1806;DHT22;901;48.142;11.516;2022-12-24T02:17:22;10.60;99.90
1806;DHT22;901;48.142;11.516;2022-12-24T02:20:26;10.60;99.90
1806;DHT22;901;48.142;11.516;2022-12-24T02:23:28;10.60;99.90
1806;DHT22;901;48.142;11.516;2022-12-24T02:26:13;10.60;99.90
1806;DHT22;901;48.142;11.516;2022-12-24T02:28:57;10.60;99.90
1806;DHT22;901;48.142;11.516;2022-12-24T02:31:31;10.60;99.90
1806;DHT22;901;48.142;11.516;2022-12-24T02:34:05;10.60;99.90
1806;DHT22;901;48.142;11.516;2022-12-24T02:36:35;10.60;99.90
1806;DHT22;901;48.142;11.516;2022-12-24T02:39:07;10.60;99.90
1806;DHT22;901;48.142;11.516;2022-12-24T02:41:38;10.60;99.90
1806;DHT22;901;48.142;11.516;2022-12-24T02:44:23;10.60;99.90
1806;DHT22;901;48.142;11.516;2022-12-24T02:46:53;10.60;99.90
1806;DHT22;901;48.142;11.516;2022-12-24T02:49:20;10.60;99.90
1806;DHT22;901;48.142;11.516;2022-12-24T02:51:47;10.50;99.90
1806;DHT22;901;48.142;11.516;2022-12-24T02:54:14;10.50;99.90
1806;DHT22;901;48.142;11.516;2022-12-24T02:56:52;10.50;99.90
1806;DHT22;901;48.142;11.516;2022-12-24T02:59:46;10.50;99.90
1806;DHT22;901;48.142;11.516;2022-12-24T03:02:23;10.60;99.90
1806;DHT22;901;48.142;11.516;2022-12-24T03:05:01;10.60;99.90
1806;DHT22;901;48.142;11.516;2022-12-24T03:07:36;10.60;99.90
1806;DHT22;901;48.142;11.516;2022-12-24T03:10:13;10.60;99.90
1806;DHT22;901;48.142;11.516;2022-12-24T03:12:44;10.60;99.90
1806;DHT22;901;48.142;11.516;2022-12-24T03:15:14;10.70;99.90
1806;DHT22;901;48.142;11.516;2022-12-24T03:17:45;10.70;99.90
1806;DHT22;901;48.142;11.516;2022-12-24T03:20:18;10.70;99.90
1806;DHT22;901;48.142;11.516;2022-12-24T03:22:46;10.70;99.90
1806;DHT22;901;48.142;11.516;2022-12-24T03:25:13;10.70;99.90
1806;DHT22;901;48.142;11.516;2022-12-24T03:27:41;10.70;99.90
1806;DHT22;901;48.142;11.516;2022-12-24T03:30:12;10.70;99.90
1806;DHT22;901;48.142;11.516;2022-12-24T03:32:39;10.70;99.90
1806;DHT22;901;48.142;11.516;2022-12-24T03:35:08;10.70;99.90
1806;DHT22;901;48.142;11.516;2022-12-24T03:37:36;10.70;99.90
1806;DHT22;901;48.142;11.516;2022-12-24T03:40:03;10.70;99.90
1806;DHT22;901;48.142;11.516;2022-12-24T03:42:30;10.70;99.90
1806;DHT22;901;48.142;11.516;2022-12-24T03:44:57;10.70;99.90
1806;DHT22;901;48.142;11.516;2022-12-24T03:47:24;10.70;99.90
1806;DHT22;901;48.142;11.516;2022-12-24T03:49:51;10.70;99.90
1806;DHT22;901;48.142;11.516;2022-12-24T03:52:19;10.70;99.90
1806;DHT22;901;48.142;11.516;2022-12-24T03:54:46;10.70;99.90
1806;DHT22;901;48.142;11.516;2022-12-24T03:57:13;10.70;99.90
1806;DHT22;901;48.142;11.516;2022-12-24T03:59:39;10.70;99.90
1806;DHT22;901;48.142;11.516;2022-12-24T04:02:06;10.70;99.90
1806;DHT22;901;48.142;11.516;2022-12-24T04:04:33;10.70;99.90
1806;DHT22;901;48.142;11.516;2022-12-24T04:07:03;10.70;99.90
1806;DHT22;901;48.142;11.516;2022-12-24T04:09:32;10.70;99.90
1806;DHT22;901;48.142;11.516;2022-12-24T04:11:59;10.70;99.90
1806;DHT22;901;48.142;11.516;2022-12-24T04:14:26;10.70;99.90
1806;DHT22;901;48.142;11.516;2022-12-24T04:16:52;10.60;99.90
1806;DHT22;901;48.142;11.516;2022-12-24T04:19:19;10.60;99.90
1806;DHT22;901;48.142;11.516;2022-12-24T04:21:46;10.60;99.90
1806;DHT22;901;48.142;11.516;2022-12-24T04:24:13;10.60;99.90
1806;DHT22;901;48.142;11.516;2022-12-24T04:26:41;10.60;99.90
1806;DHT22;901;48.142;11.516;2022-12-24T04:29:08;10.60;99.90
1806;DHT22;901;48.142;11.516;2022-12-24T04:31:34;10.60;99.90
1806;DHT22;901;48.142;11.516;2022-12-24T04:34:01;10.60;99.90
1806;DHT22;901;48.142;11.516;2022-12-24T04:36:29;10.60;99.90
1806;DHT22;901;48.142;11.516;2022-12-24T04:38:56;10.60;99.90
1806;DHT22;901;48.142;11.516;2022-12-24T04:41:23;10.60;99.90
1806;DHT22;901;48.142;11.516;2022-12-24T04:43:52;10.60;99.90
1806;DHT22;901;48.142;11.516;2022-12-24T04:46:21;10.70;99.90
1806;DHT22;901;48.142;11.516;2022-12-24T04:48:49;10.70;99.90
1806;DHT22;901;48.142;11.516;2022-12-24T04:51:17;10.70;99.90
1806;DHT22;901;48.142;11.516;2022-12-24T04:53:44;10.70;99.90
1806;DHT22;901;48.142;11.516;2022-12-24T04:56:13;10.60;99.90
1806;DHT22;901;48.142;11.516;2022-12-24T04:58:40;10.60;99.90
1806;DHT22;901;48.142;11.516;2022-12-24T05:01:12;10.60;99.90
1806;DHT22;901;48.142;11.516;2022-12-24T05:03:39;10.60;99.90
1806;DHT22;901;48.142;11.516;2022-12-24T05:06:07;10.60;99.90
1806;DHT22;901;48.142;11.516;2022-12-24T05:08:34;10.60;99.90
1806;DHT22;901;48.142;11.516;2022-12-24T05:11:01;10.60;99.90
1806;DHT22;901;48.142;11.516;2022-12-24T05:13:28;10.60;99.90
1806;DHT22;901;48.142;11.516;2022-12-24T05:15:55;10.60;99.90
1806;DHT22;901;48.142;11.516;2022-12-24T05:18:24;10.60;99.90
1806;DHT22;901;48.142;11.516;2022-12-24T05:20:51;10.60;99.90
1806;DHT22;901;48.142;11.516;2022-12-24T05:23:20;10.60;99.90
1806;DHT22;901;48.142;11.516;2022-12-24T05:26:13;10.60;99.90
1806;DHT22;901;48.142;11.516;2022-12-24T05:28:50;10.60;99.90
1806;DHT22;901;48.142;11.516;2022-12-24T05:31:18;10.60;99.90
1806;DHT22;901;48.142;11.516;2022-12-24T05:33:46;10.60;99.90
1806;DHT22;901;48.142;11.516;2022-12-24T05:36:14;10.60;99.90
1806;DHT22;901;48.142;11.516;2022-12-24T05:38:41;10.60;99.90
1806;DHT22;901;48.142;11.516;2022-12-24T05:41:08;10.70;99.90
1806;DHT22;901;48.142;11.516;2022-12-24T05:43:35;10.60;99.90
1806;DHT22;901;48.142;11.516;2022-12-24T05:46:05;10.70;99.90
1806;DHT22;901;48.142;11.516;2022-12-24T05:48:32;10.60;99.90
1806;DHT22;901;48.142;11.516;2022-12-24T05:51:05;10.60;99.90
1806;DHT22;901;48.142;11.516;2022-12-24T05:53:33;10.60;99.90
1806;DHT22;901;48.142;11.516;2022-12-24T05:56:04;10.60;99.90
1806;DHT22;901;48.142;11.516;2022-12-24T05:58:31;10.60;99.90
1806;DHT22;901;48.142;11.516;2022-12-24T06:00:59;10.60;99.90
1806;DHT22;901;48.142;11.516;2022-12-24T06:03:26;10.60;99.90
1806;DHT22;901;48.142;11.516;2022-12-24T06:06:00;10.60;99.90
1806;DHT22;901;48.142;11.516;2022-12-24T06:08:29;10.60;99.90
1806;DHT22;901;48.142;11.516;2022-12-24T06:10:57;10.60;99.90
1806;DHT22;901;48.142;11.516;2022-12-24T06:13:24;10.60;99.90
1806;DHT22;901;48.142;11.516;2022-12-24T06:15:53;10.60;99.90
1806;DHT22;901;48.142;11.516;2022-12-24T06:18:20;10.60;99.90
1806;DHT22;901;48.142;11.516;2022-12-24T06:20:49;10.60;99.90
1806;DHT22;901;48.142;11.516;2022-12-24T06:23:16;10.60;99.90
1806;DHT22;901;48.142;11.516;2022-12-24T06:25:44;10.60;99.90
1806;DHT22;901;48.142;11.516;2022-12-24T06:28:11;10.60;99.90
1806;DHT22;901;48.142;11.516;2022-12-24T06:30:38;10.60;99.90
1806;DHT22;901;48.142;11.516;2022-12-24T06:33:05;10.60;99.90
1806;DHT22;901;48.142;11.516;2022-12-24T06:35:32;10.60;99.90
1806;DHT22;901;48.142;11.516;2022-12-24T06:37:59;10.60;99.90
1806;DHT22;901;48.142;11.516;2022-12-24T06:40:26;10.50;99.90
1806;DHT22;901;48.142;11.516;2022-12-24T06:42:54;10.50;99.90
1806;DHT22;901;48.142;11.516;2022-12-24T06:45:21;10.50;99.90
1806;DHT22;901;48.142;11.516;2022-12-24T06:47:48;10.50;99.90
1806;DHT22;901;48.142;11.516;2022-12-24T06:50:15;10.50;99.90
1806;DHT22;901;48.142;11.516;2022-12-24T06:52:42;10.50;99.90
1806;DHT22;901;48.142;11.516;2022-12-24T06:55:09;10.40;99.90
1806;DHT22;901;48.142;11.516;2022-12-24T06:57:36;10.40;99.90
1806;DHT22;901;48.142;11.516;2022-12-24T07:00:05;10.40;99.90
1806;DHT22;901;48.142;11.516;2022-12-24T07:02:32;10.40;99.90
1806;DHT22;901;48.142;11.516;2022-12-24T07:04:59;10.40;99.90
1806;DHT22;901;48.142;11.516;2022-12-24T07:07:26;10.30;99.90
1806;DHT22;901;48.142;11.516;2022-12-24T07:09:53;10.40;99.90
1806;DHT22;901;48.142;11.516;2022-12-24T07:12:21;10.40;99.90
1806;DHT22;901;48.142;11.516;2022-12-24T07:14:47;10.30;99.90
1806;DHT22;901;48.142;11.516;2022-12-24T07:17:16;10.30;99.90
1806;DHT22;901;48.142;11.516;2022-12-24T07:19:42;10.30;99.90
1806;DHT22;901;48.142;11.516;2022-12-24T07:22:09;10.30;99.90
1806;DHT22;901;48.142;11.516;2022-12-24T07:24:36;10.30;99.90
1806;DHT22;901;48.142;11.516;2022-12-24T07:27:03;10.20;99.90
1806;DHT22;901;48.142;11.516;2022-12-24T07:29:30;10.20;99.90
1806;DHT22;901;48.142;11.516;2022-12-24T07:31:56;10.20;99.90
1806;DHT22;901;48.142;11.516;2022-12-24T07:34:24;10.20;99.90
1806;DHT22;901;48.142;11.516;2022-12-24T07:36:51;10.10;99.90
1806;DHT22;901;48.142;11.516;2022-12-24T07:39:18;10.10;99.90
1806;DHT22;901;48.142;11.516;2022-12-24T07:41:45;10.10;99.90
1806;DHT22;901;48.142;11.516;2022-12-24T07:44:12;10.20;99.90
1806;DHT22;901;48.142;11.516;2022-12-24T07:46:40;10.10;99.90
1806;DHT22;901;48.142;11.516;2022-12-24T07:49:07;10.10;99.90
1806;DHT22;901;48.142;11.516;2022-12-24T07:51:35;10.10;99.90
1806;DHT22;901;48.142;11.516;2022-12-24T07:54:02;10.10;99.90
1806;DHT22;901;48.142;11.516;2022-12-24T07:56:29;10.10;99.90
1806;DHT22;901;48.142;11.516;2022-12-24T07:58:56;10.10;99.90
1806;DHT22;901;48.142;11.516;2022-12-24T08:01:23;10.10;99.90
1806;DHT22;901;48.142;11.516;2022-12-24T08:03:50;10.10;99.90
1806;DHT22;901;48.142;11.516;2022-12-24T08:06:18;10.10;99.90
1806;DHT22;901;48.142;11.516;2022-12-24T08:08:47;10.10;99.90
1806;DHT22;901;48.142;11.516;2022-12-24T08:11:14;10.10;99.90
1806;DHT22;901;48.142;11.516;2022-12-24T08:13:40;10.10;99.90
1806;DHT22;901;48.142;11.516;2022-12-24T08:16:07;10.20;99.90
1806;DHT22;901;48.142;11.516;2022-12-24T08:18:34;10.20;99.90
1806;DHT22;901;48.142;11.516;2022-12-24T08:21:01;10.20;99.90
1806;DHT22;901;48.142;11.516;2022-12-24T08:23:28;10.30;99.90
1806;DHT22;901;48.142;11.516;2022-12-24T08:25:56;10.30;99.90
1806;DHT22;901;48.142;11.516;2022-12-24T08:28:23;10.30;99.90
1806;DHT22;901;48.142;11.516;2022-12-24T08:30:50;10.40;99.90
1806;DHT22;901;48.142;11.516;2022-12-24T08:33:17;10.40;99.90
1806;DHT22;901;48.142;11.516;2022-12-24T08:35:47;10.40;99.90
1806;DHT22;901;48.142;11.516;2022-12-24T08:38:15;10.40;99.90
1806;DHT22;901;48.142;11.516;2022-12-24T08:40:42;10.50;99.90
1806;DHT22;901;48.142;11.516;2022-12-24T08:43:10;10.50;99.90
1806;DHT22;901;48.142;11.516;2022-12-24T08:45:38;10.50;99.90
1806;DHT22;901;48.142;11.516;2022-12-24T08:48:05;10.50;99.90
1806;DHT22;901;48.142;11.516;2022-12-24T08:50:32;10.50;99.90
1806;DHT22;901;48.142;11.516;2022-12-24T08:52:59;10.50;99.90
1806;DHT22;901;48.142;11.516;2022-12-24T08:55:25;10.50;99.90
1806;DHT22;901;48.142;11.516;2022-12-24T08:57:52;10.50;99.90
1806;DHT22;901;48.142;11.516;2022-12-24T09:00:20;10.50;99.90
1806;DHT22;901;48.142;11.516;2022-12-24T09:02:48;10.60;99.90
1806;DHT22;901;48.142;11.516;2022-12-24T09:05:15;10.60;99.90
1806;DHT22;901;48.142;11.516;2022-12-24T09:07:42;10.60;99.90
1806;DHT22;901;48.142;11.516;2022-12-24T09:10:10;10.60;99.90
1806;DHT22;901;48.142;11.516;2022-12-24T09:12:37;10.70;99.90
1806;DHT22;901;48.142;11.516;2022-12-24T09:15:04;10.70;99.90
1806;DHT22;901;48.142;11.516;2022-12-24T09:17:34;10.70;99.90
1806;DHT22;901;48.142;11.516;2022-12-24T09:20:01;10.80;99.90
1806;DHT22;901;48.142;11.516;2022-12-24T09:22:27;10.80;99.90
1806;DHT22;901;48.142;11.516;2022-12-24T09:24:54;10.80;99.90
1806;DHT22;901;48.142;11.516;2022-12-24T09:27:21;10.80;99.90
1806;DHT22;901;48.142;11.516;2022-12-24T09:29:48;10.90;99.90
1806;DHT22;901;48.142;11.516;2022-12-24T09:32:15;10.80;99.90
1806;DHT22;901;48.142;11.516;2022-12-24T09:34:43;10.80;99.90
1806;DHT22;901;48.142;11.516;2022-12-24T09:37:10;10.90;99.90
1806;DHT22;901;48.142;11.516;2022-12-24T09:39:36;10.90;99.90
1806;DHT22;901;48.142;11.516;2022-12-24T09:42:10;10.90;99.90
1806;DHT22;901;48.142;11.516;2022-12-24T09:44:45;10.90;99.90
1806;DHT22;901;48.142;11.516;2022-12-24T09:47:21;10.90;99.90
1806;DHT22;901;48.142;11.516;2022-12-24T09:49:52;10.90;99.90
1806;DHT22;901;48.142;11.516;2022-12-24T09:52:27;10.90;99.90
1806;DHT22;901;48.142;11.516;2022-12-24T09:54:59;10.90;99.90
1806;DHT22;901;48.142;11.516;2022-12-24T09:57:30;10.90;99.90
1806;DHT22;901;48.142;11.516;2022-12-24T09:59:59;10.90;99.90
1806;DHT22;901;48.142;11.516;2022-12-24T10:02:26;10.90;99.90
1806;DHT22;901;48.142;11.516;2022-12-24T10:04:54;10.90;99.90
1806;DHT22;901;48.142;11.516;2022-12-24T10:07:30;11.00;99.90
1806;DHT22;901;48.142;11.516;2022-12-24T10:10:09;11.10;99.90
1806;DHT22;901;48.142;11.516;2022-12-24T10:12:44;11.10;99.90
1806;DHT22;901;48.142;11.516;2022-12-24T10:15:21;11.10;99.90
1806;DHT22;901;48.142;11.516;2022-12-24T10:17:58;11.10;99.90
1806;DHT22;901;48.142;11.516;2022-12-24T10:20:41;11.10;99.90
1806;DHT22;901;48.142;11.516;2022-12-24T10:23:18;11.10;99.90
1806;DHT22;901;48.142;11.516;2022-12-24T10:25:50;11.00;99.90
1806;DHT22;901;48.142;11.516;2022-12-24T10:28:26;11.00;99.90
1806;DHT22;901;48.142;11.516;2022-12-24T10:30:58;10.90;99.90
1806;DHT22;901;48.142;11.516;2022-12-24T10:33:31;10.80;99.90
1806;DHT22;901;48.142;11.516;2022-12-24T10:35:59;10.80;99.90
1806;DHT22;901;48.142;11.516;2022-12-24T10:38:26;10.70;99.90
1806;DHT22;901;48.142;11.516;2022-12-24T10:40:54;10.70;99.90
1806;DHT22;901;48.142;11.516;2022-12-24T10:43:28;10.70;99.90
1806;DHT22;901;48.142;11.516;2022-12-24T10:45:56;10.60;99.90
1806;DHT22;901;48.142;11.516;2022-12-24T10:48:26;10.60;99.90
1806;DHT22;901;48.142;11.516;2022-12-24T10:51:00;10.50;99.90
1806;DHT22;901;48.142;11.516;2022-12-24T10:53:36;10.50;99.90
1806;DHT22;901;48.142;11.516;2022-12-24T10:56:06;10.40;99.90
1806;DHT22;901;48.142;11.516;2022-12-24T10:58:34;10.40;99.90
1806;DHT22;901;48.142;11.516;2022-12-24T11:01:01;10.40;99.90
1806;DHT22;901;48.142;11.516;2022-12-24T11:03:31;10.30;99.90
1806;DHT22;901;48.142;11.516;2022-12-24T11:06:04;10.30;99.90
1806;DHT22;901;48.142;11.516;2022-12-24T11:08:31;10.30;99.90
1806;DHT22;901;48.142;11.516;2022-12-24T11:11:01;10.40;99.90
1806;DHT22;901;48.142;11.516;2022-12-24T11:13:30;10.40;99.90
1806;DHT22;901;48.142;11.516;2022-12-24T11:16:00;10.50;99.90
1806;DHT22;901;48.142;11.516;2022-12-24T11:18:28;10.60;99.90
1806;DHT22;901;48.142;11.516;2022-12-24T11:20:57;10.70;99.90
1806;DHT22;901;48.142;11.516;2022-12-24T11:23:27;10.80;99.90
1806;DHT22;901;48.142;11.516;2022-12-24T11:25:55;10.90;99.90
1806;DHT22;901;48.142;11.516;2022-12-24T11:28:25;11.00;99.90
1806;DHT22;901;48.142;11.516;2022-12-24T11:30:58;11.00;99.90
1806;DHT22;901;48.142;11.516;2022-12-24T11:33:27;11.00;99.90
1806;DHT22;901;48.142;11.516;2022-12-24T11:35:58;11.00;99.90
1806;DHT22;901;48.142;11.516;2022-12-24T11:38:28;11.10;99.90
1806;DHT22;901;48.142;11.516;2022-12-24T11:41:01;11.00;99.90
1806;DHT22;901;48.142;11.516;2022-12-24T11:43:35;11.00;99.90
1806;DHT22;901;48.142;11.516;2022-12-24T11:46:35;11.00;99.90
1806;DHT22;901;48.142;11.516;2022-12-24T11:49:14;11.10;99.90
1806;DHT22;901;48.142;11.516;2022-12-24T11:52:18;11.10;99.90
1806;DHT22;901;48.142;11.516;2022-12-24T11:55:11;11.10;99.90
1806;DHT22;901;48.142;11.516;2022-12-24T11:57:44;11.20;99.90
1806;DHT22;901;48.142;11.516;2022-12-24T12:00:13;11.20;99.90
1806;DHT22;901;48.142;11.516;2022-12-24T12:02:42;11.20;99.90
1806;DHT22;901;48.142;11.516;2022-12-24T12:05:13;11.10;99.90
1806;DHT22;901;48.142;11.516;2022-12-24T12:07:42;11.10;99.90
1806;DHT22;901;48.142;11.516;2022-12-24T12:10:19;11.00;99.90
1806;DHT22;901;48.142;11.516;2022-12-24T12:12:56;11.00;99.90
1806;DHT22;901;48.142;11.516;2022-12-24T12:15:27;10.90;99.90
1806;DHT22;901;48.142;11.516;2022-12-24T12:18:02;10.80;99.90
1806;DHT22;901;48.142;11.516;2022-12-24T12:20:32;10.80;99.90
1806;DHT22;901;48.142;11.516;2022-12-24T12:23:04;10.80;99.90
1806;DHT22;901;48.142;11.516;2022-12-24T12:25:40;10.70;99.90
1806;DHT22;901;48.142;11.516;2022-12-24T12:28:15;10.70;99.90
1806;DHT22;901;48.142;11.516;2022-12-24T12:30:44;10.60;99.90
1806;DHT22;901;48.142;11.516;2022-12-24T12:33:17;10.60;99.90
1806;DHT22;901;48.142;11.516;2022-12-24T12:35:46;10.60;99.90
1806;DHT22;901;48.142;11.516;2022-12-24T12:38:18;10.50;99.90
1806;DHT22;901;48.142;11.516;2022-12-24T12:40:59;10.50;99.90
1806;DHT22;901;48.142;11.516;2022-12-24T12:43:38;10.50;99.90
1806;DHT22;901;48.142;11.516;2022-12-24T12:46:12;10.60;99.90
1806;DHT22;901;48.142;11.516;2022-12-24T12:48:55;10.60;99.90
1806;DHT22;901;48.142;11.516;2022-12-24T12:51:27;10.60;99.90
1806;DHT22;901;48.142;11.516;2022-12-24T12:54:12;10.60;99.90
1806;DHT22;901;48.142;11.516;2022-12-24T12:56:45;10.70;99.90
1806;DHT22;901;48.142;11.516;2022-12-24T12:59:16;10.70;99.90
1806;DHT22;901;48.142;11.516;2022-12-24T13:01:53;10.60;99.90
1806;DHT22;901;48.142;11.516;2022-12-24T13:05:05;10.60;99.90
1806;DHT22;901;48.142;11.516;2022-12-24T13:07:50;10.60;99.90
1806;DHT22;901;48.142;11.516;2022-12-24T13:10:35;10.60;99.90
1806;DHT22;901;48.142;11.516;2022-12-24T13:19:03;10.50;99.90
1806;DHT22;901;48.142;11.516;2022-12-24T13:21:34;10.50;99.90
1806;DHT22;901;48.142;11.516;2022-12-24T13:24:05;10.50;99.90
1806;DHT22;901;48.142;11.516;2022-12-24T13:26:32;10.50;99.90
1806;DHT22;901;48.142;11.516;2022-12-24T13:29:30;10.60;99.90
1806;DHT22;901;48.142;11.516;2022-12-24T13:35:33;10.60;99.90
1806;DHT22;901;48.142;11.516;2022-12-24T13:44:26;10.50;99.90
1806;DHT22;901;48.142;11.516;2022-12-24T13:47:15;10.40;99.90
1806;DHT22;901;48.142;11.516;2022-12-24T13:49:48;10.40;99.90
1806;DHT22;901;48.142;11.516;2022-12-24T13:52:24;10.40;99.90
1806;DHT22;901;48.142;11.516;2022-12-24T13:57:56;10.40;99.90
1806;DHT22;901;48.142;11.516;2022-12-24T14:00:30;10.40;99.90
1806;DHT22;901;48.142;11.516;2022-12-24T14:03:01;10.40;99.90
1806;DHT22;901;48.142;11.516;2022-12-24T14:05:32;10.40;99.90
1806;DHT22;901;48.142;11.516;2022-12-24T14:08:02;10.40;99.90
1806;DHT22;901;48.142;11.516;2022-12-24T14:10:35;10.30;99.90
1806;DHT22;901;48.142;11.516;2022-12-24T14:13:04;10.30;99.90
1806;DHT22;901;48.142;11.516;2022-12-24T14:16:06;10.30;99.90
1806;DHT22;901;48.142;11.516;2022-12-24T14:18:37;10.30;99.90
1806;DHT22;901;48.142;11.516;2022-12-24T14:21:06;10.40;99.90
1806;DHT22;901;48.142;11.516;2022-12-24T14:23:44;10.50;99.90
1806;DHT22;901;48.142;11.516;2022-12-24T14:26:15;10.50;99.90
1806;DHT22;901;48.142;11.516;2022-12-24T14:28:44;10.50;99.90
1806;DHT22;901;48.142;11.516;2022-12-24T14:31:15;10.50;99.90
1806;DHT22;901;48.142;11.516;2022-12-24T14:33:42;10.50;99.90
1806;DHT22;901;48.142;11.516;2022-12-24T14:36:10;10.40;99.90
1806;DHT22;901;48.142;11.516;2022-12-24T14:38:41;10.40;99.90
1806;DHT22;901;48.142;11.516;2022-12-24T14:41:19;10.40;99.90
1806;DHT22;901;48.142;11.516;2022-12-24T14:43:55;10.30;99.90
1806;DHT22;901;48.142;11.516;2022-12-24T14:46:31;10.30;99.90
1806;DHT22;901;48.142;11.516;2022-12-24T14:49:04;10.20;99.90
1806;DHT22;901;48.142;11.516;2022-12-24T14:51:37;10.10;99.90
1806;DHT22;901;48.142;11.516;2022-12-24T14:57:13;9.90;99.90
1806;DHT22;901;48.142;11.516;2022-12-24T14:59:42;9.80;99.90
1806;DHT22;901;48.142;11.516;2022-12-24T15:05:13;9.70;99.90
1806;DHT22;901;48.142;11.516;2022-12-24T15:07:44;9.60;99.90
1806;DHT22;901;48.142;11.516;2022-12-24T15:10:31;9.50;99.90
1806;DHT22;901;48.142;11.516;2022-12-24T15:13:01;9.40;99.90
1806;DHT22;901;48.142;11.516;2022-12-24T15:15:29;9.40;99.90
1806;DHT22;901;48.142;11.516;2022-12-24T15:17:57;9.30;99.90
1806;DHT22;901;48.142;11.516;2022-12-24T15:20:26;9.30;99.90
1806;DHT22;901;48.142;11.516;2022-12-24T15:22:56;9.30;99.90
1806;DHT22;901;48.142;11.516;2022-12-24T15:25:25;9.20;99.90
1806;DHT22;901;48.142;11.516;2022-12-24T15:27:55;9.20;99.90
1806;DHT22;901;48.142;11.516;2022-12-24T15:30:24;9.20;99.90
1806;DHT22;901;48.142;11.516;2022-12-24T15:32:53;9.10;99.90
1806;DHT22;901;48.142;11.516;2022-12-24T15:35:32;9.10;99.90
1806;DHT22;901;48.142;11.516;2022-12-24T15:38:00;9.00;99.90
1806;DHT22;901;48.142;11.516;2022-12-24T15:40:28;9.00;99.90
1806;DHT22;901;48.142;11.516;2022-12-24T15:42:59;9.00;99.90
1806;DHT22;901;48.142;11.516;2022-12-24T15:45:28;9.00;99.90
1806;DHT22;901;48.142;11.516;2022-12-24T15:47:58;8.90;99.90
1806;DHT22;901;48.142;11.516;2022-12-24T15:50:29;9.00;99.90
1806;DHT22;901;48.142;11.516;2022-12-24T15:52:59;9.00;99.90
1806;DHT22;901;48.142;11.516;2022-12-24T15:55:30;9.00;99.90
1806;DHT22;901;48.142;11.516;2022-12-24T15:58:00;9.00;99.90
1806;DHT22;901;48.142;11.516;2022-12-24T16:00:28;9.00;99.90
1806;DHT22;901;48.142;11.516;2022-12-24T16:03:10;9.00;99.90
1806;DHT22;901;48.142;11.516;2022-12-24T16:05:38;9.00;99.90
1806;DHT22;901;48.142;11.516;2022-12-24T16:08:24;9.00;99.90
1806;DHT22;901;48.142;11.516;2022-12-24T16:11:05;9.00;99.90
1806;DHT22;901;48.142;11.516;2022-12-24T16:13:37;9.00;99.90
1806;DHT22;901;48.142;11.516;2022-12-24T16:16:06;9.00;99.90
1806;DHT22;901;48.142;11.516;2022-12-24T16:18:36;9.00;99.90
1806;DHT22;901;48.142;11.516;2022-12-24T16:21:04;9.00;99.90
1806;DHT22;901;48.142;11.516;2022-12-24T16:23:36;8.90;99.90
1806;DHT22;901;48.142;11.516;2022-12-24T16:26:04;8.90;99.90
1806;DHT22;901;48.142;11.516;2022-12-24T16:28:31;8.90;99.90
1806;DHT22;901;48.142;11.516;2022-12-24T16:31:00;8.90;99.90
1806;DHT22;901;48.142;11.516;2022-12-24T16:33:26;8.90;99.90
1806;DHT22;901;48.142;11.516;2022-12-24T16:35:54;8.90;99.90
1806;DHT22;901;48.142;11.516;2022-12-24T16:38:21;8.90;99.90
1806;DHT22;901;48.142;11.516;2022-12-24T16:40:48;8.80;99.90
1806;DHT22;901;48.142;11.516;2022-12-24T16:43:15;8.80;99.90
1806;DHT22;901;48.142;11.516;2022-12-24T16:46:02;8.80;99.90
1806;DHT22;901;48.142;11.516;2022-12-24T16:48:30;8.80;99.90
1806;DHT22;901;48.142;11.516;2022-12-24T16:51:01;8.70;99.90